createdAt,value
2023-04-06T00:01:58.602Z,42.16
2023-04-06T00:04:26.635Z,42.65
2023-04-06T00:06:54.091Z,42.49
2023-04-06T00:09:21.562Z,41.98
2023-04-06T00:11:49.304Z,41.50
2023-04-06T00:14:18.385Z,41.85
2023-04-06T00:16:46.129Z,42.44
2023-04-06T00:19:13.914Z,42.57
2023-04-06T00:21:41.460Z,42.52
2023-04-06T00:24:08.936Z,42.16
2023-04-06T00:26:36.835Z,42.23
2023-04-06T00:29:04.455Z,42.40
2023-04-06T00:31:31.985Z,42.45
2023-04-06T00:33:59.758Z,42.51
2023-04-06T00:36:27.716Z,42.28
2023-04-06T00:38:56.023Z,42.39
2023-04-06T00:41:23.879Z,42.19
2023-04-06T00:43:52.149Z,42.04
2023-04-06T00:46:20.531Z,42.28
2023-04-06T00:48:48.298Z,42.34
2023-04-06T00:51:15.837Z,42.03
2023-04-06T00:53:43.527Z,41.92
2023-04-06T00:56:11.706Z,42.51
2023-04-06T00:58:41.687Z,42.31
2023-04-06T01:01:09.555Z,42.50
2023-04-06T01:03:37.871Z,42.67
2023-04-06T01:06:05.925Z,42.56
2023-04-06T01:08:34.056Z,42.51
2023-04-06T01:11:03.217Z,42.54
2023-04-06T01:13:30.842Z,41.78
2023-04-06T01:15:58.592Z,42.11
2023-04-06T01:18:30.811Z,42.63
2023-04-06T01:21:00.546Z,42.18
2023-04-06T01:23:28.874Z,42.45
2023-04-06T01:25:56.595Z,42.78
2023-04-06T01:28:24.214Z,42.66
2023-04-06T01:30:52.439Z,42.83
2023-04-06T01:33:21.135Z,42.83
2023-04-06T01:35:51.071Z,42.67
2023-04-06T01:38:19.529Z,42.21
2023-04-06T01:40:48.182Z,42.28
2023-04-06T01:43:17.522Z,42.21
2023-04-06T01:45:46.140Z,42.34
2023-04-06T01:48:14.090Z,42.33
2023-04-06T01:50:42.203Z,42.23
2023-04-06T01:53:11.302Z,42.25
2023-04-06T01:55:39.122Z,42.70
2023-04-06T01:58:09.446Z,42.79
2023-04-06T02:00:37.447Z,43.11
2023-04-06T02:03:05.777Z,43.01
2023-04-06T02:05:39.226Z,42.77
2023-04-06T02:08:09.298Z,43.30
2023-04-06T02:10:37.120Z,43.07
2023-04-06T02:13:05.506Z,42.36
2023-04-06T02:15:33.603Z,42.78
2023-04-06T02:18:01.716Z,43.13
2023-04-06T02:20:29.587Z,43.67
2023-04-06T02:22:59.697Z,42.72
2023-04-06T02:25:27.646Z,43.50
2023-04-06T02:27:55.822Z,43.04
2023-04-06T02:30:23.545Z,43.11
2023-04-06T02:32:51.242Z,42.72
2023-04-06T02:35:19.245Z,42.62
2023-04-06T02:37:48.366Z,42.37
2023-04-06T02:40:15.939Z,42.48
2023-04-06T02:42:43.485Z,43.19
2023-04-06T02:45:12.419Z,43.13
2023-04-06T02:47:40.312Z,43.07
2023-04-06T02:50:08.098Z,43.18
2023-04-06T02:52:37.390Z,43.15
2023-04-06T02:55:05.553Z,43.02
2023-04-06T02:57:33.087Z,42.73
2023-04-06T03:00:00.940Z,43.39
2023-04-06T03:02:29.404Z,43.32
2023-04-06T03:04:59.440Z,43.32
2023-04-06T03:07:27.628Z,43.08
2023-04-06T03:09:56.108Z,43.35
2023-04-06T03:12:23.676Z,43.41
2023-04-06T03:14:53.207Z,43.75
2023-04-06T03:17:21.350Z,43.38
2023-04-06T03:19:49.470Z,43.71
2023-04-06T03:22:17.877Z,43.52
2023-04-06T03:24:47.981Z,43.60
2023-04-06T03:27:15.930Z,43.73
2023-04-06T03:29:45.526Z,43.68
2023-04-06T03:32:13.564Z,43.82
2023-04-06T03:34:41.676Z,43.85
2023-04-06T03:37:10.702Z,43.63
2023-04-06T03:39:39.411Z,43.57
2023-04-06T03:42:07.325Z,43.89
2023-04-06T03:44:35.622Z,44.12
2023-04-06T03:47:03.304Z,43.92
2023-04-06T03:49:31.209Z,44.42
2023-04-06T03:51:59.298Z,44.17
2023-04-06T03:54:26.800Z,44.32
2023-04-06T03:56:54.219Z,44.58
2023-04-06T03:59:22.152Z,44.35
2023-04-06T04:01:49.782Z,44.44
2023-04-06T04:04:17.697Z,44.49
2023-04-06T04:06:45.388Z,44.16
2023-04-06T04:09:12.976Z,44.39
2023-04-06T04:11:40.916Z,44.87
2023-04-06T04:14:08.434Z,44.95
2023-04-06T04:16:36.121Z,44.75
2023-04-06T04:19:03.895Z,45.06
2023-04-06T04:21:32.942Z,45.00
2023-04-06T04:24:01.734Z,45.20
2023-04-06T04:26:29.614Z,45.34
2023-04-06T04:28:57.139Z,45.19
2023-04-06T04:31:24.746Z,45.00
2023-04-06T04:33:53.724Z,44.84
2023-04-06T04:36:25.441Z,44.83
2023-04-06T04:38:53.963Z,44.92
2023-04-06T04:41:21.593Z,44.68
2023-04-06T04:43:50.229Z,44.46
2023-04-06T04:46:21.147Z,44.27
2023-04-06T04:48:49.040Z,44.35
2023-04-06T04:51:16.846Z,44.37
2023-04-06T04:53:46.207Z,44.32
2023-04-06T04:56:15.786Z,44.35
2023-04-06T04:58:44.375Z,44.68
2023-04-06T05:01:12.512Z,44.44
2023-04-06T05:03:41.241Z,45.23
2023-04-06T05:06:10.085Z,44.51
2023-04-06T05:08:40.067Z,44.37
2023-04-06T05:11:08.146Z,44.59
2023-04-06T05:13:36.412Z,45.58
2023-04-06T05:16:06.845Z,45.15
2023-04-06T05:18:35.073Z,44.66
2023-04-06T05:21:03.182Z,44.05
2023-04-06T05:23:31.811Z,43.82
2023-04-06T05:26:01.921Z,44.11
2023-04-06T05:28:29.620Z,44.58
2023-04-06T05:30:58.034Z,44.33
2023-04-06T05:33:27.270Z,44.74
2023-04-06T05:35:55.896Z,44.63
2023-04-06T05:38:24.115Z,45.38
2023-04-06T05:40:52.497Z,44.46
2023-04-06T05:43:22.920Z,43.82
2023-04-06T05:45:53.096Z,43.85
2023-04-06T05:48:21.397Z,44.54
2023-04-06T05:50:52.174Z,45.51
2023-04-06T05:53:22.169Z,45.02
2023-04-06T05:55:50.898Z,44.31
2023-04-06T05:58:18.673Z,43.86
2023-04-06T06:00:47.094Z,43.27
2023-04-06T06:03:16.308Z,43.06
2023-04-06T06:05:46.825Z,43.36
2023-04-06T06:08:15.530Z,43.41
2023-04-06T06:10:43.950Z,43.11
2023-04-06T06:13:12.149Z,43.27
2023-04-06T06:15:39.989Z,42.19
2023-04-06T06:18:07.931Z,41.86
2023-04-06T06:20:35.935Z,41.21
2023-04-06T06:23:04.265Z,40.30
2023-04-06T06:25:32.141Z,40.40
2023-04-06T06:28:00.071Z,39.70
2023-04-06T06:30:29.284Z,39.60
2023-04-06T06:32:56.821Z,39.00
2023-04-06T06:35:24.948Z,39.40
2023-04-06T06:37:53.119Z,39.60
2023-04-06T06:40:25.022Z,39.57
2023-04-06T06:42:53.900Z,39.05
2023-04-06T06:45:22.457Z,39.78
2023-04-06T06:47:50.842Z,40.18
2023-04-06T06:50:20.081Z,40.19
2023-04-06T06:52:47.531Z,39.24
2023-04-06T06:55:16.278Z,39.21
2023-04-06T06:57:44.206Z,39.24
2023-04-06T07:00:14.178Z,38.45
2023-04-06T07:02:42.099Z,38.39
2023-04-06T07:05:23.943Z,38.37
2023-04-06T07:07:55.385Z,38.67
2023-04-06T07:10:23.464Z,37.98
2023-04-06T07:12:51.009Z,41.24
2023-04-06T07:15:18.877Z,37.18
2023-04-06T07:17:46.896Z,37.63
2023-04-06T07:20:14.911Z,37.43
2023-04-06T07:22:44.689Z,37.26
2023-04-06T07:25:12.506Z,37.65
2023-04-06T07:27:41.664Z,37.84
2023-04-06T07:30:09.699Z,36.58
2023-04-06T07:32:38.404Z,36.50
2023-04-06T07:35:06.291Z,36.80
2023-04-06T07:37:33.718Z,36.29
2023-04-06T07:40:01.482Z,35.97
2023-04-06T07:42:30.653Z,36.28
2023-04-06T07:44:58.290Z,36.25
2023-04-06T07:47:26.320Z,36.39
2023-04-06T07:49:57.040Z,36.88
2023-04-06T07:52:24.556Z,36.64
2023-04-06T07:54:52.334Z,36.86
2023-04-06T07:57:19.983Z,37.38
2023-04-06T07:59:47.460Z,35.93
2023-04-06T08:02:15.726Z,36.09
2023-04-06T08:04:45.780Z,36.00
2023-04-06T08:07:13.619Z,35.03
2023-04-06T08:09:41.090Z,35.92
2023-04-06T08:12:08.803Z,35.21
2023-04-06T08:14:36.314Z,35.76
2023-04-06T08:17:06.247Z,35.86
2023-04-06T08:19:34.323Z,35.68
2023-04-06T08:22:01.919Z,35.66
2023-04-06T08:24:29.472Z,35.44
2023-04-06T08:26:57.195Z,35.69
2023-04-06T08:29:24.691Z,35.35
2023-04-06T08:31:52.406Z,35.37
2023-04-06T08:34:20.205Z,35.21
2023-04-06T08:36:47.807Z,34.53
2023-04-06T08:39:15.310Z,34.26
2023-04-06T08:41:43.947Z,34.66
2023-04-06T08:44:12.519Z,34.45
2023-04-06T08:46:40.118Z,34.28
2023-04-06T08:49:08.896Z,33.42
2023-04-06T08:51:39.041Z,32.89
2023-04-06T08:54:06.690Z,32.77
2023-04-06T08:56:38.656Z,32.79
2023-04-06T08:59:07.208Z,32.63
2023-04-06T09:01:42.141Z,32.80
2023-04-06T09:04:12.348Z,31.71
2023-04-06T09:06:41.802Z,34.19
2023-04-06T09:09:09.590Z,31.78
2023-04-06T09:11:50.766Z,30.93
2023-04-06T09:14:33.766Z,30.78
2023-04-06T09:17:01.075Z,32.67
2023-04-06T09:19:28.757Z,30.90
2023-04-06T09:22:08.048Z,31.70
2023-04-06T09:24:44.168Z,31.41
2023-04-06T09:27:11.656Z,30.58
2023-04-06T09:29:39.443Z,30.63
2023-04-06T09:32:08.026Z,29.14
2023-04-06T09:34:35.587Z,29.70
2023-04-06T09:37:14.092Z,30.48
2023-04-06T09:39:41.858Z,30.52
2023-04-06T09:42:09.720Z,30.68
2023-04-06T09:44:37.276Z,29.79
2023-04-06T09:47:07.966Z,29.90
2023-04-06T09:49:36.397Z,28.96
2023-04-06T09:52:05.605Z,28.77
2023-04-06T09:54:33.253Z,28.20
2023-04-06T09:57:26.736Z,28.93
2023-04-06T10:00:00.267Z,30.29
2023-04-06T10:02:47.663Z,30.39
2023-04-06T10:05:27.713Z,29.95
2023-04-06T10:08:00.722Z,29.54
2023-04-06T10:10:29.911Z,29.08
2023-04-06T10:12:57.790Z,28.65
2023-04-06T10:15:25.609Z,27.50
2023-04-06T10:17:53.388Z,28.50
2023-04-06T10:20:32.194Z,27.43
2023-04-06T10:23:16.431Z,28.27
2023-04-06T10:25:58.131Z,28.38
2023-04-06T10:28:26.738Z,28.49
2023-04-06T10:31:06.181Z,26.98
2023-04-06T10:33:37.218Z,28.12
2023-04-06T10:36:24.278Z,26.80
2023-04-06T10:39:00.461Z,27.13
2023-04-06T10:41:42.280Z,26.59
2023-04-06T10:44:22.156Z,26.69
2023-04-06T10:46:57.419Z,26.87
2023-04-06T10:49:27.353Z,26.22
2023-04-06T10:51:56.377Z,27.64
2023-04-06T10:54:25.906Z,26.95
2023-04-06T10:56:53.668Z,27.30
2023-04-06T10:59:22.625Z,27.97
2023-04-06T11:01:50.673Z,28.47
2023-04-06T11:04:19.323Z,28.99
2023-04-06T11:06:50.967Z,28.17
2023-04-06T11:09:27.091Z,27.01
2023-04-06T11:11:55.335Z,27.70
2023-04-06T11:14:23.121Z,28.53
2023-04-06T11:16:51.200Z,25.67
2023-04-06T11:19:19.047Z,26.17
2023-04-06T11:21:48.502Z,26.14
2023-04-06T11:24:16.368Z,26.30
2023-04-06T11:26:46.792Z,27.46
2023-04-06T11:29:14.991Z,26.93
2023-04-06T11:32:03.645Z,27.93
2023-04-06T11:34:33.593Z,28.80
2023-04-06T11:37:03.448Z,28.83
2023-04-06T11:39:31.427Z,28.28
2023-04-06T11:42:00.850Z,27.92
2023-04-06T11:44:41.403Z,28.48
2023-04-06T11:47:10.783Z,28.01
2023-04-06T11:49:40.043Z,27.93
2023-04-06T11:52:24.813Z,27.03
2023-04-06T11:54:54.245Z,27.27
2023-04-06T11:57:25.423Z,26.88
2023-04-06T11:59:53.534Z,27.04
2023-04-06T12:02:21.321Z,26.21
2023-04-06T12:04:49.096Z,26.50
2023-04-06T12:07:16.624Z,27.07
2023-04-06T12:09:44.326Z,26.39
2023-04-06T12:12:12.081Z,26.61
2023-04-06T12:14:42.567Z,27.76
2023-04-06T12:17:09.983Z,26.72
2023-04-06T12:19:37.715Z,26.93
2023-04-06T12:22:05.419Z,27.17
2023-04-06T12:24:34.330Z,26.69
2023-04-06T12:27:10.243Z,26.11
2023-04-06T12:29:39.378Z,27.28
2023-04-06T12:32:07.211Z,27.74
2023-04-06T12:34:34.773Z,27.32
2023-04-06T12:37:02.238Z,27.18
2023-04-06T12:39:30.083Z,26.88
2023-04-06T12:41:58.185Z,26.20
2023-04-06T12:44:26.949Z,26.60
2023-04-06T12:46:55.179Z,26.87
2023-04-06T12:49:22.981Z,27.01
2023-04-06T12:51:51.253Z,26.81
2023-04-06T12:54:19.190Z,26.58
2023-04-06T12:56:47.021Z,26.28
2023-04-06T12:59:14.552Z,26.12
2023-04-06T13:01:42.413Z,25.82
2023-04-06T13:04:10.086Z,26.45
2023-04-06T13:06:37.530Z,26.84
2023-04-06T13:09:06.560Z,26.37
2023-04-06T13:11:34.014Z,26.75
2023-04-06T13:14:01.490Z,26.10
2023-04-06T13:16:29.474Z,25.58
2023-04-06T13:18:56.942Z,25.90
2023-04-06T13:21:24.418Z,26.47
2023-04-06T13:23:52.168Z,26.25
2023-04-06T13:26:19.638Z,27.05
2023-04-06T13:28:47.147Z,25.39
2023-04-06T13:31:14.994Z,25.60
2023-04-06T13:33:42.527Z,26.14
2023-04-06T13:36:10.203Z,27.00
2023-04-06T13:38:39.976Z,26.50
2023-04-06T13:41:07.564Z,26.86
2023-04-06T13:43:35.099Z,27.28
2023-04-06T13:46:02.850Z,27.14
2023-04-06T13:48:30.508Z,27.41
2023-04-06T13:50:58.698Z,27.12
2023-04-06T13:53:26.447Z,27.66
2023-04-06T13:55:56.955Z,28.04
2023-04-06T13:58:24.550Z,28.00
2023-04-06T14:00:52.272Z,28.25
2023-04-06T14:03:22.164Z,28.22
2023-04-06T14:05:49.620Z,28.76
2023-04-06T14:08:17.105Z,28.03
2023-04-06T14:10:44.791Z,28.73
2023-04-06T14:13:12.808Z,29.48
2023-04-06T14:15:40.247Z,29.44
2023-04-06T14:18:08.940Z,30.18
2023-04-06T14:20:36.377Z,31.79
2023-04-06T14:23:04.451Z,31.57
2023-04-06T14:25:33.138Z,31.36
2023-04-06T14:28:02.731Z,30.98
2023-04-06T14:30:31.698Z,31.12
2023-04-06T14:32:59.519Z,31.01
2023-04-06T14:35:29.045Z,29.78
2023-04-06T14:37:58.975Z,30.46
2023-04-06T14:40:26.777Z,30.69
2023-04-06T14:42:55.759Z,30.40
2023-04-06T14:45:23.613Z,30.25
2023-04-06T14:47:51.657Z,30.60
2023-04-06T14:50:19.090Z,30.89
2023-04-06T14:52:47.871Z,31.10
2023-04-06T14:55:16.530Z,31.78
2023-04-06T14:57:43.930Z,32.18
2023-04-06T15:00:12.254Z,32.92
2023-04-06T15:02:40.884Z,32.77
2023-04-06T15:05:08.774Z,33.89
2023-04-06T15:07:36.273Z,32.74
2023-04-06T15:10:05.698Z,33.36
2023-04-06T15:12:33.731Z,33.66
2023-04-06T15:15:01.998Z,34.51
2023-04-06T15:17:29.684Z,34.83
2023-04-06T15:19:57.092Z,34.88
2023-04-06T15:22:24.533Z,34.92
2023-04-06T15:24:52.158Z,34.67
2023-04-06T15:27:19.520Z,35.05
2023-04-06T15:29:46.903Z,35.24
2023-04-06T15:32:14.816Z,34.85
2023-04-06T15:34:42.483Z,34.86
2023-04-06T15:37:09.841Z,35.26
2023-04-06T15:39:37.836Z,35.19
2023-04-06T15:42:05.397Z,34.50
2023-04-06T15:44:32.843Z,35.00
2023-04-06T15:47:00.641Z,34.62
2023-04-06T15:49:28.586Z,34.83
2023-04-06T15:51:56.111Z,35.69
2023-04-06T15:54:23.788Z,35.29
2023-04-06T15:56:51.314Z,37.34
2023-04-06T15:59:18.851Z,37.48
2023-04-06T16:01:47.159Z,37.78
2023-04-06T16:04:15.119Z,37.82
2023-04-06T16:06:42.682Z,37.86
2023-04-06T16:09:10.268Z,37.66
2023-04-06T16:11:37.968Z,38.22
2023-04-06T16:14:05.613Z,39.64
2023-04-06T16:16:33.110Z,38.88
2023-04-06T16:19:00.975Z,39.03
2023-04-06T16:21:28.772Z,39.73
2023-04-06T16:23:58.516Z,39.77
2023-04-06T16:26:27.545Z,40.30
2023-04-06T16:28:55.070Z,41.26
2023-04-06T16:31:23.843Z,41.99
2023-04-06T16:33:56.869Z,42.07
2023-04-06T16:36:28.979Z,44.15
2023-04-06T16:38:57.227Z,45.45
2023-04-06T16:41:25.002Z,46.55
2023-04-06T16:43:53.640Z,47.46
2023-04-06T16:46:21.550Z,47.61
2023-04-06T16:48:49.058Z,49.50
2023-04-06T16:51:16.716Z,50.63
2023-04-06T16:53:44.627Z,49.99
2023-04-06T16:56:12.179Z,50.51
2023-04-06T16:58:39.643Z,50.73
2023-04-06T17:01:07.294Z,52.64
2023-04-06T17:03:35.314Z,53.48
2023-04-06T17:06:02.774Z,54.65
2023-04-06T17:08:30.546Z,55.70
2023-04-06T17:11:02.497Z,56.37
2023-04-06T17:13:31.332Z,55.58
2023-04-06T17:15:59.727Z,56.43
2023-04-06T17:18:27.464Z,57.19
2023-04-06T17:20:55.263Z,56.89
2023-04-06T17:23:24.169Z,57.33
2023-04-06T17:25:52.418Z,57.91
2023-04-06T17:28:27.992Z,58.75
2023-04-06T17:30:56.427Z,59.28
2023-04-06T17:33:25.133Z,60.08
2023-04-06T17:35:53.073Z,59.40
2023-04-06T17:38:21.141Z,59.90
2023-04-06T17:40:48.664Z,60.33
2023-04-06T17:43:17.061Z,59.94
2023-04-06T17:45:44.937Z,59.61
2023-04-06T17:48:12.401Z,60.40
2023-04-06T17:50:40.269Z,60.09
2023-04-06T17:53:08.532Z,61.78
2023-04-06T17:55:36.385Z,61.70
2023-04-06T17:58:04.879Z,61.19
2023-04-06T18:00:32.315Z,60.72
2023-04-06T18:03:00.174Z,60.73
2023-04-06T18:05:27.739Z,60.54
2023-04-06T18:07:57.917Z,60.45
2023-04-06T18:10:25.733Z,60.73
2023-04-06T18:12:53.160Z,61.12
2023-04-06T18:15:20.837Z,60.99
2023-04-06T18:17:50.468Z,59.95
2023-04-06T18:20:17.926Z,59.96
2023-04-06T18:22:45.411Z,61.18
2023-04-06T18:25:13.192Z,60.76
2023-04-06T18:27:41.004Z,59.39
2023-04-06T18:30:08.811Z,59.56
2023-04-06T18:32:36.843Z,60.28
2023-04-06T18:35:06.786Z,60.11
2023-04-06T18:37:34.243Z,60.35
2023-04-06T18:40:02.247Z,60.06
2023-04-06T18:42:29.601Z,60.79
2023-04-06T18:44:56.967Z,61.30
2023-04-06T18:47:24.684Z,60.81
2023-04-06T18:49:52.146Z,60.57
2023-04-06T18:52:19.590Z,61.73
2023-04-06T18:54:47.226Z,60.31
2023-04-06T18:57:14.634Z,59.46
2023-04-06T18:59:42.082Z,60.62
2023-04-06T19:02:09.797Z,59.61
2023-04-06T19:04:37.462Z,59.75
2023-04-06T19:07:04.961Z,60.15
2023-04-06T19:09:32.578Z,59.59
2023-04-06T19:12:00.046Z,59.45
2023-04-06T19:14:31.650Z,59.19
2023-04-06T19:16:59.636Z,58.97
2023-04-06T19:19:27.114Z,58.21
2023-04-06T19:21:55.123Z,57.93
2023-04-06T19:24:22.791Z,58.09
2023-04-06T19:26:50.413Z,57.86
2023-04-06T19:29:18.012Z,57.71
2023-04-06T19:31:45.727Z,57.75
2023-04-06T19:34:17.666Z,57.43
2023-04-06T19:36:45.828Z,58.49
2023-04-06T19:39:17.419Z,59.00
2023-04-06T19:41:44.865Z,59.45
2023-04-06T19:44:12.251Z,60.18
2023-04-06T19:46:40.011Z,60.71
2023-04-06T19:49:07.517Z,60.80
2023-04-06T19:51:34.897Z,60.29
2023-04-06T19:54:03.303Z,60.09
2023-04-06T19:56:31.535Z,61.47
2023-04-06T19:58:59.863Z,61.18
2023-04-06T20:01:27.704Z,60.28
2023-04-06T20:03:55.727Z,61.32
2023-04-06T20:06:23.204Z,60.36
2023-04-06T20:08:50.604Z,60.04
2023-04-06T20:11:18.526Z,59.85
2023-04-06T20:13:45.953Z,60.07
2023-04-06T20:16:13.333Z,60.48
2023-04-06T20:18:41.103Z,58.66
2023-04-06T20:21:08.515Z,59.88
2023-04-06T20:23:37.433Z,60.37
2023-04-06T20:26:08.427Z,60.34
2023-04-06T20:28:35.965Z,60.14
2023-04-06T20:31:03.388Z,59.74
2023-04-06T20:33:31.202Z,58.85
2023-04-06T20:35:59.661Z,59.08
2023-04-06T20:38:33.222Z,60.04
2023-04-06T20:41:01.945Z,59.61
2023-04-06T20:43:30.210Z,59.19
2023-04-06T20:45:58.699Z,59.33
2023-04-06T20:48:26.480Z,59.47
2023-04-06T20:50:54.067Z,59.69
2023-04-06T20:53:21.543Z,60.25
2023-04-06T20:55:49.178Z,60.29
2023-04-06T20:58:20.557Z,60.02
2023-04-06T21:00:49.665Z,59.74
2023-04-06T21:03:18.483Z,58.97
2023-04-06T21:05:55.582Z,59.57
2023-04-06T21:10:50.907Z,62.12
2023-04-06T21:13:18.309Z,62.38
2023-04-06T21:15:46.025Z,62.12
2023-04-06T21:18:13.492Z,61.85
2023-04-06T21:20:41.110Z,61.74
2023-04-06T21:23:08.901Z,62.08
2023-04-06T21:25:37.226Z,61.06
2023-04-06T21:28:05.019Z,60.69
2023-04-06T21:30:36.905Z,61.61
2023-04-06T21:33:05.092Z,61.78
2023-04-06T21:35:33.715Z,60.56
2023-04-06T21:38:01.405Z,60.58
2023-04-06T21:40:28.967Z,60.55
2023-04-06T21:42:56.658Z,60.57
2023-04-06T21:45:24.065Z,60.42
2023-04-06T21:47:51.952Z,59.25
2023-04-06T21:50:19.652Z,59.55
2023-04-06T21:52:47.262Z,59.77
2023-04-06T21:55:15.197Z,58.70
2023-04-06T21:57:44.483Z,58.59
2023-04-06T22:00:12.480Z,58.69
2023-04-06T22:02:42.731Z,59.04
2023-04-06T22:05:10.814Z,59.09
2023-04-06T22:07:38.404Z,60.00
2023-04-06T22:10:06.293Z,58.79
2023-04-06T22:12:34.222Z,58.29
2023-04-06T22:15:01.588Z,58.44
2023-04-06T22:17:29.580Z,58.85
2023-04-06T22:19:57.378Z,58.33
2023-04-06T22:22:24.774Z,58.38
2023-04-06T22:24:52.194Z,58.51
2023-04-06T22:27:19.890Z,59.45
2023-04-06T22:29:47.406Z,59.46
2023-04-06T22:32:14.891Z,59.62
2023-04-06T22:34:42.630Z,60.25
2023-04-06T22:37:09.979Z,59.27
2023-04-06T22:39:37.420Z,59.20
2023-04-06T22:42:06.290Z,58.52
2023-04-06T22:44:33.651Z,57.72
2023-04-06T22:47:01.210Z,58.17
2023-04-06T22:49:28.962Z,57.86
2023-04-06T22:51:56.331Z,57.31
2023-04-06T22:54:23.942Z,57.22
2023-04-06T22:56:51.670Z,58.19
2023-04-06T22:59:19.130Z,58.32
2023-04-06T23:01:46.647Z,57.30
2023-04-06T23:04:14.429Z,57.24
2023-04-06T23:06:41.863Z,56.78
2023-04-06T23:09:09.246Z,56.97
2023-04-06T23:11:36.887Z,56.59
2023-04-06T23:14:04.260Z,57.62
2023-04-06T23:16:31.664Z,57.17
2023-04-06T23:18:59.390Z,57.11
2023-04-06T23:21:26.813Z,56.96
2023-04-06T23:23:54.882Z,56.93
2023-04-06T23:26:24.392Z,57.00
2023-04-06T23:28:51.900Z,57.05
2023-04-06T23:31:19.361Z,57.19
2023-04-06T23:33:47.030Z,56.63
2023-04-06T23:36:14.428Z,57.13
2023-04-06T23:38:41.845Z,56.51
2023-04-06T23:41:13.970Z,57.60
2023-04-06T23:43:41.333Z,57.07
2023-04-06T23:46:09.273Z,56.54
2023-04-06T23:48:36.678Z,55.97
2023-04-06T23:51:04.167Z,55.84
2023-04-06T23:53:32.233Z,56.22
2023-04-06T23:55:59.857Z,55.62
2023-04-06T23:58:27.271Z,55.48
